Time;durP1;ratioP1;P1;durP2;ratioP2;P2;SDS_P1;SDS_P2;PMS_P1;PMS_P2;Temp;Humidity;BMP_temperature;BMP_pressure;BME280_temperature;BME280_humidity;BME280_pressure;Samples;Min_cycle;Max_cycle;Signal;HPM_P1;HPM_P2
2023/09/20 00:00:51;;;;;;;;;;;17.20;99.90;;;17.32;100.00;100141.00;4965778;28;20035;-83
2023/09/20 00:03:19;;;;;;;;;;;17.20;99.90;;;17.18;100.00;100129.69;4968584;28;19918;-84
2023/09/20 00:05:47;;;;;;;;;;;17.20;99.90;;;17.23;100.00;100140.72;4970606;28;20317;-83
2023/09/20 00:08:14;;;;;;;;;;;17.10;99.90;;;17.20;100.00;100144.88;4967774;28;19979;-84
2023/09/20 00:10:39;;;;;;;;;;;17.10;99.90;;;17.18;100.00;100146.25;4968783;28;20220;-84
2023/09/20 00:13:06;;;;;;;;;;;17.10;99.90;;;17.17;100.00;100148.19;4971392;28;19921;-83
2023/09/20 00:15:32;;;;;;;;;;;17.20;99.90;;;17.19;100.00;100148.72;4966459;28;20114;-84
2023/09/20 00:17:58;;;;;;;;;;;17.20;99.90;;;17.22;100.00;100137.16;4972537;28;20001;-85
2023/09/20 00:20:24;;;;;;;;;;;17.20;99.90;;;17.37;100.00;100149.28;4968431;28;20393;-83
2023/09/20 00:22:50;;;;;;;;;;;17.30;99.90;;;17.40;100.00;100149.56;4967462;28;19918;-84
2023/09/20 00:25:17;;;;;;;;;;;17.30;99.90;;;17.38;100.00;100140.75;4953957;28;19921;-82
2023/09/20 00:27:45;;;;;;;;;;;17.30;99.90;;;17.31;100.00;100140.19;4965042;28;20005;-83
2023/09/20 00:30:14;;;;;;;;;;;17.30;99.90;;;17.39;100.00;100141.59;4948838;28;19918;-82
2023/09/20 00:32:40;;;;;;;;;;;17.30;99.90;;;17.39;100.00;100142.41;4965824;28;19966;-82
2023/09/20 00:35:09;;;;;;;;;;;17.40;99.90;;;17.40;100.00;100137.72;4961971;28;19918;-83
2023/09/20 00:37:34;;;;;;;;;;;17.40;99.90;;;17.39;100.00;100138.84;4948369;28;19918;-84
2023/09/20 00:40:00;;;;;;;;;;;17.30;99.90;;;17.36;100.00;100142.97;4967364;28;20374;-83
2023/09/20 00:42:28;;;;;;;;;;;17.20;99.90;;;17.16;100.00;100130.00;4966263;28;20271;-82
2023/09/20 00:44:53;;;;;;;;;;;17.20;99.90;;;17.18;100.00;100138.81;4965918;28;19972;-83
2023/09/20 00:47:20;;;;;;;;;;;17.10;99.90;;;17.22;100.00;100139.06;4965150;28;19925;-82
2023/09/20 00:49:46;;;;;;;;;;;17.10;99.90;;;17.20;100.00;100139.38;4948837;28;20401;-82
2023/09/20 00:52:13;;;;;;;;;;;17.10;99.90;;;17.21;100.00;100146.53;4959141;28;19918;-83
2023/09/20 00:54:41;;;;;;;;;;;17.00;99.90;;;17.23;100.00;100143.47;4965083;28;19925;-82
2023/09/20 00:57:09;;;;;;;;;;;17.00;99.90;;;17.29;100.00;100153.44;4950451;28;19918;-83
2023/09/20 00:59:36;;;;;;;;;;;17.10;99.90;;;17.28;100.00;100143.50;4970055;28;20358;-81
2023/09/20 01:02:03;;;;;;;;;;;17.20;99.90;;;17.36;100.00;100145.72;4965194;28;20426;-83
2023/09/20 01:04:29;;;;;;;;;;;17.20;99.90;;;17.33;100.00;100151.78;4967661;28;19969;-82
2023/09/20 01:06:55;;;;;;;;;;;17.30;99.90;;;17.42;100.00;100148.47;4965723;28;19918;-83
2023/09/20 01:09:24;;;;;;;;;;;17.30;99.90;;;17.40;100.00;100138.53;4965662;28;20008;-83
2023/09/20 01:11:50;;;;;;;;;;;17.30;99.90;;;17.45;100.00;100145.16;4952952;28;19929;-82
2023/09/20 01:14:16;;;;;;;;;;;17.40;99.90;;;17.51;100.00;100146.84;4970667;28;19914;-82
2023/09/20 01:16:42;;;;;;;;;;;17.40;99.90;;;17.56;100.00;100152.34;4947043;28;20251;-83
2023/09/20 01:19:08;;;;;;;;;;;17.50;99.90;;;17.56;100.00;100141.31;4968836;28;20341;-83
2023/09/20 01:21:42;;;;;;;;;;;17.50;99.90;;;17.65;100.00;100152.63;4974209;28;19918;-82
2023/09/20 01:24:10;;;;;;;;;;;17.50;99.90;;;17.57;100.00;100142.13;4954935;28;19921;-84
2023/09/20 01:26:38;;;;;;;;;;;17.50;99.90;;;17.64;100.00;100145.47;4969815;28;19918;-83
2023/09/20 01:29:04;;;;;;;;;;;17.50;99.90;;;17.63;100.00;100146.53;4974429;28;20259;-82
2023/09/20 01:31:30;;;;;;;;;;;17.50;99.90;;;17.57;100.00;100142.97;4945006;28;19925;-84
2023/09/20 01:33:56;;;;;;;;;;;17.50;99.90;;;17.56;100.00;100149.59;4960138;28;19930;-84
2023/09/20 01:36:22;;;;;;;;;;;17.50;99.90;;;17.52;100.00;100143.78;4975552;28;19996;-84
2023/09/20 01:38:48;;;;;;;;;;;17.50;99.90;;;17.64;100.00;100148.22;4970216;28;19933;-84
2023/09/20 01:41:14;;;;;;;;;;;17.60;99.90;;;17.57;100.00;100137.47;4974726;28;20289;-82
2023/09/20 01:43:41;;;;;;;;;;;17.50;99.90;;;17.64;100.00;100149.03;4973555;28;20380;-83
2023/09/20 01:46:07;;;;;;;;;;;17.50;99.90;;;17.58;100.00;100139.09;4974286;28;20021;-83
2023/09/20 01:48:34;;;;;;;;;;;17.50;99.90;;;17.56;100.00;100146.00;4954660;28;21524;-83
2023/09/20 01:51:00;;;;;;;;;;;17.50;99.90;;;17.53;100.00;100139.13;4971480;28;20012;-82
2023/09/20 01:53:25;;;;;;;;;;;17.50;99.90;;;17.48;100.00;100147.34;4967220;28;19984;-84
2023/09/20 01:55:52;;;;;;;;;;;17.50;99.90;;;17.51;100.00;100155.09;4963405;28;19922;-83
2023/09/20 01:58:18;;;;;;;;;;;17.50;99.90;;;17.34;100.00;100131.38;4950927;29;19922;-84
2023/09/20 02:00:45;;;;;;;;;;;17.40;99.90;;;17.45;100.00;100150.66;4968922;28;19914;-84
2023/09/20 02:03:16;;;;;;;;;;;17.40;99.90;;;17.43;100.00;100152.88;4970808;28;20005;-85
2023/09/20 02:05:44;;;;;;;;;;;17.40;99.90;;;17.45;100.00;100153.44;4961497;28;19925;-84
2023/09/20 02:08:10;;;;;;;;;;;17.30;99.90;;;17.39;100.00;100139.66;4943141;28;19965;-82
2023/09/20 02:10:37;;;;;;;;;;;17.30;99.90;;;17.43;100.00;100148.22;4940579;28;19949;-83
2023/09/20 02:13:03;;;;;;;;;;;17.30;99.90;;;17.37;100.00;100150.13;4961869;28;19980;-83
2023/09/20 02:15:31;;;;;;;;;;;17.30;99.90;;;17.40;100.00;100144.06;4969189;28;20009;-83
2023/09/20 02:17:57;;;;;;;;;;;17.30;99.90;;;17.38;100.00;100143.50;4946728;28;20077;-83
2023/09/20 02:20:24;;;;;;;;;;;17.30;99.90;;;17.40;100.00;100143.25;4945555;28;19949;-83
2023/09/20 02:22:53;;;;;;;;;;;17.30;99.90;;;17.39;100.00;100138.84;4964032;28;19918;-83
2023/09/20 02:25:22;;;;;;;;;;;17.40;99.90;;;17.34;100.00;100138.81;4944776;29;19946;-85
2023/09/20 02:27:51;;;;;;;;;;;17.30;99.90;;;17.33;100.00;100140.75;4965840;28;19941;-84
2023/09/20 02:30:24;;;;;;;;;;;17.30;99.90;;;17.30;100.00;100138.56;4952944;28;20441;-84
2023/09/20 02:32:57;;;;;;;;;;;17.30;99.90;;;17.36;100.00;100142.97;4973329;28;20270;-84
2023/09/20 02:35:24;;;;;;;;;;;17.30;99.90;;;17.36;100.00;100137.44;4970228;28;19972;-84
2023/09/20 02:37:51;;;;;;;;;;;17.30;99.90;;;17.33;100.00;100132.47;4945963;29;20005;-83
2023/09/20 02:40:23;;;;;;;;;;;17.30;99.90;;;17.39;100.00;100136.88;4963980;28;19918;-84
2023/09/20 02:42:54;;;;;;;;;;;17.30;99.90;;;17.33;100.00;100126.97;4968063;28;19929;-83
2023/09/20 02:45:21;;;;;;;;;;;17.30;99.90;;;17.32;100.00;100130.00;4951232;28;19922;-85
2023/09/20 02:47:47;;;;;;;;;;;17.30;99.90;;;17.35;100.00;100124.75;4955623;28;19929;-83
2023/09/20 02:50:16;;;;;;;;;;;17.30;99.90;;;17.34;100.00;100116.75;4959925;28;19922;-84
2023/09/20 02:52:45;;;;;;;;;;;17.30;99.90;;;17.29;100.00;100117.59;4961429;28;20366;-85
2023/09/20 02:55:12;;;;;;;;;;;17.20;99.90;;;17.23;100.00;100138.81;4962563;28;19918;-85
2023/09/20 02:57:44;;;;;;;;;;;17.30;99.90;;;17.22;100.00;100114.25;4964865;28;19923;-85
2023/09/20 03:00:21;;;;;;;;;;;17.20;99.90;;;17.29;100.00;100125.03;4968703;28;20021;-83
2023/09/20 03:02:53;;;;;;;;;;;17.20;99.90;;;17.30;100.00;100127.53;4960021;28;19934;-83
2023/09/20 03:05:21;;;;;;;;;;;17.20;99.90;;;17.29;100.00;100119.50;4961904;28;19918;-83
2023/09/20 03:07:49;;;;;;;;;;;17.30;99.90;;;17.28;100.00;100115.94;4956636;28;20478;-83
2023/09/20 03:10:19;;;;;;;;;;;17.30;99.90;;;17.27;100.00;100114.28;4965012;28;19918;-84
2023/09/20 03:12:47;;;;;;;;;;;17.30;99.90;;;17.29;100.00;100117.59;4972806;28;20530;-84
2023/09/20 03:15:17;;;;;;;;;;;17.30;99.90;;;17.28;100.00;100113.19;4956864;28;19926;-84
2023/09/20 03:17:44;;;;;;;;;;;17.30;99.90;;;17.32;100.00;100114.28;4968456;28;19929;-86
2023/09/20 03:20:11;;;;;;;;;;;17.30;99.90;;;17.36;100.00;100115.38;4965970;28;19941;-86
2023/09/20 03:22:39;;;;;;;;;;;17.30;99.90;;;17.39;100.00;100112.06;4945209;29;19929;-84
2023/09/20 03:25:09;;;;;;;;;;;17.30;99.90;;;17.36;100.00;100112.63;4953435;28;19918;-82
2023/09/20 03:27:40;;;;;;;;;;;17.30;99.90;;;17.36;100.00;100115.38;4941250;28;19926;-84
2023/09/20 03:30:10;;;;;;;;;;;17.30;99.90;;;17.37;100.00;100106.00;4960232;28;19993;-83
2023/09/20 03:32:39;;;;;;;;;;;17.30;99.90;;;17.39;100.00;100114.84;4961447;28;19918;-83
2023/09/20 03:35:06;;;;;;;;;;;17.30;99.90;;;17.30;100.00;100108.22;4971547;28;19918;-85
2023/09/20 03:37:33;;;;;;;;;;;17.30;99.90;;;17.33;100.00;100101.31;4956366;29;20081;-83
2023/09/20 03:39:59;;;;;;;;;;;17.30;99.90;;;17.38;100.00;100110.44;4956480;28;19922;-85
2023/09/20 03:42:25;;;;;;;;;;;17.30;99.90;;;17.38;100.00;100112.38;4957234;28;19941;-84
2023/09/20 03:44:50;;;;;;;;;;;17.30;99.90;;;17.33;100.00;100109.59;4958325;28;19917;-83
2023/09/20 03:47:16;;;;;;;;;;;17.30;99.90;;;17.23;100.00;100115.91;4961957;28;20289;-86
2023/09/20 03:49:43;;;;;;;;;;;17.20;99.90;;;17.22;100.00;100109.59;4973615;28;19918;-85
2023/09/20 03:52:08;;;;;;;;;;;17.20;99.90;;;17.30;100.00;100110.97;4975057;28;19922;-85
2023/09/20 03:54:35;;;;;;;;;;;17.20;99.90;;;17.27;100.00;100106.03;4967553;28;19951;-86
2023/09/20 03:57:02;;;;;;;;;;;17.20;99.90;;;17.20;100.00;100095.25;4960515;28;19918;-83
2023/09/20 03:59:31;;;;;;;;;;;17.20;99.90;;;17.29;100.00;100105.72;4953279;29;19933;-84
2023/09/20 04:01:57;;;;;;;;;;;17.20;99.90;;;17.30;100.00;100104.63;4969138;28;19918;-85
2023/09/20 04:04:23;;;;;;;;;;;17.20;99.90;;;17.31;100.00;100103.53;4972876;29;19913;-85
2023/09/20 04:06:49;;;;;;;;;;;17.20;99.90;;;17.29;100.00;100095.56;4985267;28;19914;-84
2023/09/20 04:09:14;;;;;;;;;;;17.20;99.90;;;17.27;100.00;100106.03;4983145;28;19941;-85
2023/09/20 04:11:44;;;;;;;;;;;17.30;99.90;;;17.29;100.00;100103.81;4951986;29;19918;-85
2023/09/20 04:14:09;;;;;;;;;;;17.30;99.90;;;17.34;100.00;100097.47;4950225;28;19918;-86
2023/09/20 04:16:36;;;;;;;;;;;17.30;99.90;;;17.35;100.00;100094.44;4953673;29;20031;-85
2023/09/20 04:19:02;;;;;;;;;;;17.30;99.90;;;17.31;100.00;100096.09;4947077;29;19954;-85
2023/09/20 04:21:27;;;;;;;;;;;17.30;99.90;;;17.35;100.00;100088.09;4947471;28;19918;-84
2023/09/20 04:23:54;;;;;;;;;;;17.30;99.90;;;17.27;100.00;100083.13;4962019;28;19974;-85
2023/09/20 04:26:20;;;;;;;;;;;17.30;99.90;;;17.35;100.00;100090.84;4964365;28;20430;-84
2023/09/20 04:28:48;;;;;;;;;;;17.30;99.90;;;17.27;100.00;100095.00;4965988;28;19918;-79
2023/09/20 04:31:14;;;;;;;;;;;17.30;99.90;;;17.31;100.00;100095.25;4949216;29;19994;-85
2023/09/20 04:33:40;;;;;;;;;;;17.30;99.90;;;17.38;100.00;100093.88;4949727;28;20366;-84
2023/09/20 04:36:06;;;;;;;;;;;17.30;99.90;;;17.29;100.00;100087.28;4953227;29;20294;-82
2023/09/20 04:38:33;;;;;;;;;;;17.20;99.90;;;17.11;100.00;100081.19;4948083;28;19927;-81
2023/09/20 04:40:59;;;;;;;;;;;17.20;99.90;;;17.20;100.00;100087.00;4967211;28;20342;-84
2023/09/20 04:43:28;;;;;;;;;;;17.10;99.90;;;17.18;100.00;100080.09;4959393;28;19919;-83
2023/09/20 04:45:55;;;;;;;;;;;17.10;99.90;;;17.08;100.00;100076.25;4959395;28;20359;-83
2023/09/20 04:48:21;;;;;;;;;;;17.00;99.90;;;17.03;100.00;100076.25;4930282;29;19969;-83
2023/09/20 04:50:51;;;;;;;;;;;17.00;99.90;;;16.97;100.00;100074.53;4959887;28;20022;-83
2023/09/20 04:53:17;;;;;;;;;;;16.90;99.90;;;16.85;100.00;100076.72;4957993;28;19922;-81
2023/09/20 04:55:43;;;;;;;;;;;16.80;99.90;;;16.85;100.00;100074.81;4935432;28;20012;-85
2023/09/20 04:58:09;;;;;;;;;;;16.80;99.90;;;16.77;100.00;100073.41;4960412;28;19976;-82
2023/09/20 05:00:37;;;;;;;;;;;16.70;99.90;;;16.68;100.00;100066.78;4951307;28;19918;-83
2023/09/20 05:03:05;;;;;;;;;;;16.70;99.90;;;16.65;100.00;100070.91;4957362;28;19918;-82
2023/09/20 05:05:30;;;;;;;;;;;16.60;99.90;;;16.60;100.00;100064.56;4953026;28;19918;-82
2023/09/20 05:07:56;;;;;;;;;;;16.50;99.90;;;16.49;100.00;100069.22;4944466;29;19918;-84
2023/09/20 05:10:22;;;;;;;;;;;16.50;99.90;;;16.54;100.00;100077.47;4965591;28;19929;-82
2023/09/20 05:12:50;;;;;;;;;;;16.50;99.90;;;16.53;100.00;100068.41;4953501;28;19919;-83
2023/09/20 05:15:16;;;;;;;;;;;16.40;99.90;;;16.46;100.00;100064.25;4956257;28;19958;-82
2023/09/20 05:17:43;;;;;;;;;;;16.40;99.90;;;16.51;100.00;100070.59;4953568;28;20005;-83
2023/09/20 05:20:14;;;;;;;;;;;16.40;99.90;;;16.47;100.00;100069.50;4951813;28;20378;-81
2023/09/20 05:22:40;;;;;;;;;;;16.40;99.90;;;16.47;100.00;100064.00;4939883;29;20450;-83
2023/09/20 05:25:07;;;;;;;;;;;16.30;99.90;;;16.38;100.00;100065.59;4957328;28;20021;-81
2023/09/20 05:27:33;;;;;;;;;;;16.30;99.90;;;16.29;100.00;100068.03;4952833;28;20697;-80
2023/09/20 05:29:59;;;;;;;;;;;16.20;99.90;;;16.28;100.00;100063.63;4958763;28;19926;-80
2023/09/20 05:32:25;;;;;;;;;;;16.20;99.90;;;16.32;100.00;100081.28;4960118;28;19922;-83
2023/09/20 05:34:50;;;;;;;;;;;16.30;99.90;;;16.30;100.00;100072.44;4951196;28;20358;-82
2023/09/20 05:37:16;;;;;;;;;;;16.30;99.90;;;16.34;100.00;100067.22;4964037;28;19969;-81
2023/09/20 05:39:43;;;;;;;;;;;16.30;99.90;;;16.47;100.00;100083.25;4960797;28;20009;-81
2023/09/20 05:42:09;;;;;;;;;;;16.40;99.90;;;16.46;100.00;100073.34;4945011;28;19973;-81
2023/09/20 05:44:36;;;;;;;;;;;16.40;99.90;;;16.48;100.00;100084.06;4959819;28;20372;-82
2023/09/20 05:47:05;;;;;;;;;;;16.40;99.90;;;16.50;100.00;100081.88;4968166;28;19964;-85
2023/09/20 05:49:30;;;;;;;;;;;16.40;99.90;;;16.51;100.00;100076.09;4936442;28;19925;-83
2023/09/20 05:51:56;;;;;;;;;;;16.50;99.90;;;16.59;100.00;100080.28;4965009;28;19918;-82
2023/09/20 05:54:22;;;;;;;;;;;16.50;99.90;;;16.62;100.00;100085.22;4953274;28;19941;-80
2023/09/20 05:56:48;;;;;;;;;;;16.50;99.90;;;16.61;100.00;100082.72;4958610;28;19989;-81
2023/09/20 05:59:17;;;;;;;;;;;16.60;99.90;;;16.61;100.00;100082.72;4961077;28;19969;-80
2023/09/20 06:01:43;;;;;;;;;;;16.60;99.90;;;16.67;100.00;100084.38;4960766;28;19922;-83
2023/09/20 06:04:12;;;;;;;;;;;16.60;99.90;;;16.61;100.00;100068.97;4951022;28;19927;-86
2023/09/20 06:06:38;;;;;;;;;;;16.70;99.90;;;16.63;100.00;100086.03;4961756;28;19914;-85
2023/09/20 06:09:05;;;;;;;;;;;16.60;99.90;;;16.67;100.00;100076.13;4957940;28;20240;-82
2023/09/20 06:11:31;;;;;;;;;;;16.70;99.90;;;16.67;100.00;100070.63;4961539;28;20025;-82
2023/09/20 06:13:57;;;;;;;;;;;16.70;99.90;;;16.72;100.00;100076.16;4960766;28;19917;-79
2023/09/20 06:16:23;;;;;;;;;;;16.70;99.90;;;16.73;100.00;100075.06;4961633;28;20391;-81
2023/09/20 06:18:50;;;;;;;;;;;16.80;99.90;;;16.72;100.00;100078.91;4957994;28;20005;-81
2023/09/20 06:21:17;;;;;;;;;;;16.70;99.90;;;16.68;100.00;100091.56;4960170;28;20003;-80
2023/09/20 06:23:44;;;;;;;;;;;16.70;99.90;;;16.60;100.00;100090.19;4967776;28;19918;-85
2023/09/20 06:26:12;;;;;;;;;;;16.60;99.90;;;16.60;100.00;100092.09;4959715;28;19918;-85
2023/09/20 06:28:49;;;;;;;;;;;16.60;99.90;;;16.56;100.00;100078.03;4970468;28;20227;-86
2023/09/20 06:31:16;;;;;;;;;;;16.60;99.90;;;16.57;100.00;100090.69;4963632;28;19956;-82
2023/09/20 06:33:46;;;;;;;;;;;16.50;99.90;;;16.47;100.00;100088.75;4957253;28;20572;-81
2023/09/20 06:36:17;;;;;;;;;;;16.50;99.90;;;16.49;100.00;100091.22;4957997;28;19965;-83
2023/09/20 06:38:43;;;;;;;;;;;16.60;99.90;;;16.53;100.00;100087.66;4950210;28;20293;-81
2023/09/20 06:41:08;;;;;;;;;;;16.60;99.90;;;16.72;100.00;100083.59;4964669;28;19929;-85
2023/09/20 06:43:36;;;;;;;;;;;16.70;99.90;;;16.85;100.00;100088.59;4962521;28;19926;-82
2023/09/20 06:46:03;;;;;;;;;;;16.90;99.90;;;16.89;100.00;100094.38;4963412;28;19918;-80
2023/09/20 06:48:29;;;;;;;;;;;17.00;99.90;;;17.00;100.00;100095.25;4949826;28;19928;-84
2023/09/20 06:50:55;;;;;;;;;;;17.00;99.90;;;17.17;100.00;100097.72;4961485;28;19925;-83
2023/09/20 06:53:24;;;;;;;;;;;17.10;99.90;;;17.17;100.00;100086.72;4967934;28;19918;-87
2023/09/20 06:55:50;;;;;;;;;;;17.20;99.90;;;17.29;100.00;100097.47;4963535;28;20424;-86
2023/09/20 06:58:16;;;;;;;;;;;17.30;99.90;;;17.31;100.00;100093.34;4957418;28;19922;-82
2023/09/20 07:00:42;;;;;;;;;;;17.40;99.90;;;17.38;100.00;100091.13;4960633;28;19989;-86
2023/09/20 07:03:08;;;;;;;;;;;17.40;99.90;;;17.39;100.00;100087.25;4961447;28;20351;-83
2023/09/20 07:05:34;;;;;;;;;;;17.50;99.90;;;17.56;100.00;100091.69;4961007;28;19925;-85
2023/09/20 07:08:00;;;;;;;;;;;17.50;99.90;;;17.53;100.00;100097.75;4969902;28;19922;-83
2023/09/20 07:10:28;;;;;;;;;;;17.50;99.90;;;17.62;100.00;100095.22;4953172;28;19925;-89
2023/09/20 07:12:54;;;;;;;;;;;17.60;99.90;;;17.75;100.00;100104.88;4956731;28;19990;-89
2023/09/20 07:15:24;;;;;;;;;;;17.70;99.90;;;17.80;100.00;100104.88;4971619;28;19918;-82
2023/09/20 07:17:58;;;;;;;;;;;17.80;99.90;;;17.91;100.00;100094.66;4961316;28;19918;-82
2023/09/20 07:20:28;;;;;;;;;;;17.90;99.90;;;17.93;100.00;100093.25;4953814;28;19956;-88
2023/09/20 07:22:54;;;;;;;;;;;18.00;99.90;;;17.98;100.00;100098.75;4966770;28;20358;-88
2023/09/20 07:25:27;;;;;;;;;;;18.00;99.90;;;18.05;100.00;100100.44;4966297;28;19918;-83
2023/09/20 07:27:59;;;;;;;;;;;18.10;99.90;;;18.18;100.00;100107.31;4969582;28;19922;-88
2023/09/20 07:30:31;;;;;;;;;;;18.20;99.90;;;18.37;100.00;100110.28;4955562;28;19918;-87
2023/09/20 07:32:59;;;;;;;;;;;;;;;18.50;100.00;100109.63;4956896;28;19921;-86
2023/09/20 07:35:36;;;;;;;;;;;;;;;18.51;100.00;100111.28;4970165;28;19925;-81
2023/09/20 07:38:04;;;;;;;;;;;;;;;18.59;100.00;100107.13;4968270;28;19918;-83
2023/09/20 07:40:31;;;;;;;;;;;;;;;18.87;100.00;100110.28;4968458;28;19918;-83
2023/09/20 07:43:07;;;;;;;;;;;;;;;18.97;100.00;100113.00;4962572;28;19919;-84
2023/09/20 07:45:43;;;;;;;;;;;;;;;19.02;100.00;100108.56;4960039;28;20327;-86
2023/09/20 07:48:12;;;;;;;;;;;;;;;19.11;100.00;100102.16;4965325;28;20029;-83
2023/09/20 07:50:40;;;;;;;;;;;;;;;19.26;100.00;100092.91;4969320;28;19922;-84
2023/09/20 07:53:10;;;;;;;;;;;;;;;19.05;100.00;100102.47;4970856;28;19918;-84
2023/09/20 07:55:45;;;;;;;;;;;;;;;19.06;100.00;100095.81;4949533;28;19970;-82
2023/09/20 07:58:13;;;;;;;;;;;;;;;19.25;100.00;100084.88;4963939;28;19922;-83
2023/09/20 08:00:44;;;;;;;;;;;;;;;19.38;100.00;100084.25;4961111;28;20366;-85
2023/09/20 08:03:14;;;;;;;;;;;;;;;19.50;100.00;100085.78;4943269;28;19918;-81
2023/09/20 08:05:41;;;;;;;;;;;;;;;19.65;100.00;100082.88;4949201;28;19918;-86
2023/09/20 08:08:08;;;;;;;;;;;;;;;19.52;100.00;100080.78;4962068;28;19918;-85
2023/09/20 08:10:34;;;;;;;;;;;;;;;19.51;100.00;100085.50;4952456;29;20016;-82
2023/09/20 08:13:01;;;;;;;;;;;;;;;19.49;100.00;100096.00;4939203;29;19922;-81
2023/09/20 08:15:28;;;;;;;;;;;;;;;19.46;100.00;100091.06;4963648;28;20294;-80
2023/09/20 08:20:40;;;;;;;;;;;;;;;19.59;100.00;100094.28;4962085;28;20370;-86
2023/09/20 09:01:37;;;;;;;;;;;;;;;21.56;100.00;100104.47;4965387;28;20378;-81
2023/09/20 09:04:05;;;;;;;;;;;;;;;21.46;100.00;100117.69;4952796;28;19925;-81
2023/09/20 09:06:31;;;;;;;;;;;;;;;21.45;100.00;100102.16;4943237;28;20017;-80
2023/09/20 09:08:57;;;;;;;;;;;;;;;21.53;100.00;100095.94;4959222;28;19948;-80
2023/09/20 09:11:25;;;;;;;;;;;;;;;21.68;100.00;100114.28;4957734;28;19925;-81
2023/09/20 09:13:52;;;;;;;;;;;;;;;21.64;100.00;100114.06;4963875;28;19918;-83
2023/09/20 09:16:21;;;;;;;;;;;;;;;21.79;100.00;100118.53;4955043;28;19954;-81
2023/09/20 09:18:48;;;;;;;;;;;;;;;21.69;100.00;100118.72;4959930;28;20009;-86
2023/09/20 09:21:17;;;;;;;;;;;;;;;21.75;100.00;100117.50;4971441;28;19918;-87
2023/09/20 09:23:45;;;;;;;;;;;;;;;21.97;100.00;100113.22;4956445;28;20385;-87
2023/09/20 09:26:13;;;;;;;;;;;;;;;22.04;100.00;100102.50;4945408;28;19918;-88
2023/09/20 09:28:42;;;;;;;;;;;;;;;22.45;100.00;100106.41;4961552;28;19946;-81
2023/09/20 09:31:08;;;;;;;;;;;;;;;22.38;100.00;100109.59;4961786;28;19918;-83
2023/09/20 09:33:35;;;;;;;;;;;;;;;22.35;100.00;100101.88;4965481;28;19931;-85
2023/09/20 09:36:02;;;;;;;;;;;;;;;22.17;100.00;100100.88;4955500;28;20378;-83
2023/09/20 09:38:32;;;;;;;;;;;;;;;21.98;100.00;100098.19;4969599;28;19918;-85
2023/09/20 09:40:59;;;;;;;;;;;;;;;22.11;100.00;100110.44;4970907;28;19918;-85
2023/09/20 09:43:25;;;;;;;;;;;;;;;22.53;100.00;100108.47;4968987;28;19977;-82
2023/09/20 09:45:53;;;;;;;;;;;;;;;22.72;100.00;100104.75;4961092;28;19918;-85
2023/09/20 09:48:20;;;;;;;;;;;;;;;22.50;100.00;100109.09;4965078;28;19930;-82
2023/09/20 09:50:46;;;;;;;;;;;;;;;22.39;100.00;100104.88;4956687;28;20373;-84
2023/09/20 09:53:13;;;;;;;;;;;;;;;22.69;100.00;100106.22;4968156;28;19925;-86
2023/09/20 09:55:40;;;;;;;;;;;;;;;22.78;100.00;100109.06;4941652;28;19925;-82
2023/09/20 09:58:08;;;;;;;;;;;;;;;23.19;100.00;100103.69;4972977;28;19980;-83
2023/09/20 10:00:37;;;;;;;;;;;;;;;23.77;100.00;100098.34;4942446;29;20490;-89
2023/09/20 10:03:11;;;;;;;;;;;;;;;24.48;96.31;100105.88;4950981;28;19927;-88
2023/09/20 10:05:38;;;;;;;;;;;;;;;24.98;89.26;100101.03;4963467;28;19991;-81
2023/09/20 10:08:05;;;;;;;;;;;;;;;25.49;87.67;100103.31;4957835;28;19918;-85
2023/09/20 10:10:31;;;;;;;;;;;;;;;25.88;82.64;100093.00;4965201;28;19926;-85
2023/09/20 10:12:57;;;;;;;;;;;;;;;26.88;75.09;100093.81;4962416;28;19976;-85
2023/09/20 10:15:24;;;;;;;;;;;;;;;27.40;70.94;100089.72;4970633;28;20359;-83
2023/09/20 10:17:59;;;;;;;;;;;;;;;27.24;68.42;100082.00;4953970;28;19988;-83
2023/09/20 10:20:45;;;;;;;;;;;;;;;26.95;73.40;100097.72;4962466;28;19919;-83
2023/09/20 10:23:11;;;;;;;;;;;;;;;26.92;71.18;100097.56;4955926;28;19925;-83
2023/09/20 10:25:37;;;;;;;;;;;;;;;27.24;69.31;100090.38;4946745;28;20028;-84
2023/09/20 10:28:14;;;;;;;;;;;;;;;27.71;66.36;100097.66;4946170;28;19930;-83
2023/09/20 10:30:55;;;;;;;;;;;;;;;28.53;62.58;100069.91;4962239;28;19941;-86
2023/09/20 10:33:47;;;;;;;;;;;;;;;28.52;60.78;100085.09;4952236;28;19941;-87
2023/09/20 10:36:14;;;;;;;;;;;;;;;28.28;61.85;100081.16;4974685;28;20370;-83
2023/09/20 10:38:40;;;;;;;;;;;;;;;28.02;60.11;100073.06;4960635;28;19919;-86
2023/09/20 10:41:10;;;;;;;;;;;;;;;27.04;63.90;100094.03;4973086;28;19914;-83
2023/09/20 10:43:36;;;;;;;;;;;;;;;26.61;67.58;100091.19;4963208;28;19930;-86
2023/09/20 10:46:07;;;;;;;;;;;;;;;27.07;66.66;100098.94;4966427;28;19918;-86
2023/09/20 10:48:33;;;;;;;;;;;;;;;27.46;64.15;100091.16;4954266;28;19918;-85
2023/09/20 10:50:59;;;;;;;;;;;;;;;28.22;61.71;100090.97;4963725;28;19969;-85
2023/09/20 10:53:47;;;;;;;;;;;;;;;27.36;64.22;100094.38;4970555;28;19918;-82
2023/09/20 10:56:32;;;;;;;;;;;;;;;25.56;73.19;100095.25;4974258;28;19925;-85
2023/09/20 10:58:59;;;;;;;;;;;;;;;26.22;71.43;100094.03;4963108;28;19926;-86
2023/09/20 11:01:25;;;;;;;;;;;;;;;25.88;76.23;100092.22;4962841;28;19918;-84
2023/09/20 11:03:54;;;;;;;;;;;;;;;25.61;75.15;100092.28;4967446;28;20285;-83
2023/09/20 11:06:21;;;;;;;;;;;;;;;25.42;79.42;100081.47;4969992;28;20358;-82
2023/09/20 11:08:47;;;;;;;;;;;;;;;25.26;83.03;100081.16;4959752;28;19955;-83
2023/09/20 11:11:15;;;;;;;;;;;;;;;24.70;90.07;100084.59;4963225;28;19922;-83
2023/09/20 11:13:46;;;;;;;;;;;;;;;24.81;88.81;100082.34;4961994;28;20048;-84
2023/09/20 11:16:13;;;;;;;;;;;;;;;25.07;86.25;100071.16;4958917;28;19922;-83
2023/09/20 11:18:41;;;;;;;;;;;;;;;26.88;76.95;100077.84;4960718;28;19922;-88
2023/09/20 11:21:07;;;;;;;;;;;;;;;28.15;68.69;100068.31;4961857;28;20361;-83
2023/09/20 11:23:34;;;;;;;;;;;;;;;27.53;65.54;100063.44;4968441;28;19965;-85
2023/09/20 11:26:00;;;;;;;;;;;;;;;27.46;67.34;100067.94;4968367;28;19922;-84
2023/09/20 11:28:27;;;;;;;;;;;;;;;27.36;67.14;100063.59;4965570;28;19966;-87
2023/09/20 11:30:53;;;;;;;;;;;;;;;26.46;71.44;100086.19;4963481;28;20020;-85
2023/09/20 11:33:29;;;;;;;;;;;;;;;26.20;75.85;100082.38;4967681;28;19984;-83
2023/09/20 11:35:56;;;;;;;;;;;;;;;26.34;82.42;100086.91;4960927;28;19922;-86
2023/09/20 11:38:22;;;;;;;;;;;;;;;26.47;73.52;100077.44;4961381;28;19918;-84
2023/09/20 11:40:48;;;;;;;;;;;;;;;26.74;75.08;100082.88;4962796;28;20378;-86
2023/09/20 11:43:20;;;;;;;;;;;;;;;25.88;80.40;100081.84;4965434;28;20009;-84
2023/09/20 11:45:47;;;;;;;;;;;;;;;26.04;79.10;100073.72;4957109;28;19919;-84
2023/09/20 11:48:15;;;;;;;;;;;;;;;27.47;72.70;100080.75;4959250;28;20305;-83
2023/09/20 11:50:42;;;;;;;;;;;;;;;29.35;64.35;100069.88;4970767;28;19929;-86
2023/09/20 11:53:12;;;;;;;;;;;;;;;28.76;59.19;100072.19;4962135;28;19925;-80
2023/09/20 11:55:41;;;;;;;;;;;;;;;28.53;61.19;100074.72;4954477;28;20472;-81
2023/09/20 11:58:07;;;;;;;;;;;;;;;29.27;60.23;100073.66;4955393;28;20021;-81
2023/09/20 12:00:33;;;;;;;;;;;;;;;28.80;59.60;100075.16;4958752;28;20468;-81
2023/09/20 12:02:59;;;;;;;;;;;;;;;28.88;60.06;100073.34;4940159;28;19986;-87
2023/09/20 12:05:25;;;;;;;;;;;;;;;29.32;57.70;100093.06;4951945;28;19918;-86
2023/09/20 12:07:52;;;;;;;;;;;;;;;29.21;56.77;100066.69;4954874;28;19924;-83
2023/09/20 12:10:18;;;;;;;;;;;;;;;29.67;55.88;100058.69;4955731;28;19941;-85
2023/09/20 12:12:44;;;;;;;;;;;;;;;29.02;55.47;100068.16;4957106;28;20575;-87
2023/09/20 12:15:10;;;;;;;;;;;;;;;29.18;60.22;100087.06;4955384;28;19918;-88